»·PEaware :: ASA315 KGEG-KPAE

ASA315 :: KGEG-KPAE

FLIGHT INFORMATION

Flight Status: Arrived
Operator:
Alaska Airlines
More flights by this operator :: More flights under this callsign
Pilot: Jack B. (5846)
Aircraft: AIRBUS A320
(A320)
More flights by this aircraft type
Origin: KGEG Spokane Intl
United States
Destination: KPAE Paine Field/Snohomish Co.
United States
More flights between these airports :: More routes between these airports
Route: +GEG6 FRZBY DEVYN2
File this flight plan on PilotEdge
Remarks:
Altitude:
(Current/Filed)
260ft
Speed:
(Current/Filed)
320kts
Departed: 02-Nov-19 11:25 AM
Arrived: 02-Nov-19 12:02 PM
Distance/Time
Traveled:
192nm/0:37
Distance/Time
To Go:
Arrived

Flight Plot

Page will automatically refresh every two minutes.

Flight plan parsing failed; only flown route is shown


Map Options




Map Legend


Flown Route
Filed Route
Departure Airport
Arrival Airport
Navaid (VOR, NDB)
Fix

Horizontal Profiles

Position Reports

Time Latitude Longitude Heading Altitude Ground
Speed
02-Nov-19 11:14 47.623368 -117.539258 359 2362ft 0kts
02-Nov-19 11:15 47.623368 -117.539258 359 2362ft 0kts
02-Nov-19 11:16 47.623368 -117.539258 359 2362ft 0kts
02-Nov-19 11:17 47.623368 -117.539258 359 2362ft 0kts
02-Nov-19 11:18 47.623368 -117.539258 359 2362ft 0kts
02-Nov-19 11:19 47.623012 -117.539266 8 2362ft 0kts
02-Nov-19 11:20 47.622609 -117.539636 75 2363ft 0kts
02-Nov-19 11:21 47.622109 -117.537349 135 2358ft 19kts
02-Nov-19 11:22 47.625594 -117.530765 45 2351ft 24kts
02-Nov-19 11:23 47.631426 -117.522011 44 2329ft 30kts
02-Nov-19 11:24 47.625343 -117.527124 225 2350ft 121kts
02-Nov-19 11:25 47.591373 -117.577245 224 4067ft 199kts
02-Nov-19 11:26 47.559438 -117.651359 288 6366ft 233kts
02-Nov-19 11:27 47.591867 -117.737103 303 8867ft 255kts
02-Nov-19 11:28 47.632096 -117.830723 302 11120ft 284kts
02-Nov-19 11:29 47.675952 -117.934574 302 13363ft 312kts
02-Nov-19 11:30 47.723480 -118.047782 302 15603ft 335kts
02-Nov-19 11:31 47.753979 -118.178722 281 17859ft 347kts
02-Nov-19 11:32 47.767970 -118.321089 280 19993ft 351kts
02-Nov-19 11:33 47.781219 -118.464535 280 21915ft 352kts
02-Nov-19 11:34 47.794378 -118.609493 281 23746ft 357kts
02-Nov-19 11:35 47.807527 -118.756484 281 25574ft 362kts
02-Nov-19 11:36 47.820770 -118.906504 281 26423ft 391kts
02-Nov-19 11:37 47.835367 -119.075228 280 26419ft 421kts
02-Nov-19 11:38 47.850525 -119.248090 280 26404ft 428kts
02-Nov-19 11:39 47.865135 -119.423394 280 26400ft 427kts
02-Nov-19 11:40 47.879428 -119.596100 280 26399ft 427kts
02-Nov-19 11:41 47.893715 -119.771809 280 26399ft 427kts
02-Nov-19 11:42 47.907715 -119.947221 280 26399ft 426kts
02-Nov-19 11:43 47.921431 -120.122028 279 26401ft 427kts
02-Nov-19 11:44 47.935169 -120.295256 279 26400ft 427kts
02-Nov-19 11:45 47.948380 -120.470803 279 26399ft 427kts
02-Nov-19 11:46 47.959009 -120.645906 278 25918ft 429kts
02-Nov-19 11:47 47.969960 -120.823489 277 23355ft 429kts
02-Nov-19 11:48 47.980547 -120.998742 277 20752ft 421kts
02-Nov-19 11:49 47.990460 -121.162040 277 18294ft 414kts
02-Nov-19 11:50 47.999431 -121.330636 276 15716ft 400kts
02-Nov-19 11:51 48.007813 -121.492019 276 13137ft 384kts
02-Nov-19 11:52 47.998449 -121.645840 255 10582ft 377kts
02-Nov-19 11:53 47.976026 -121.782072 260 10360ft 301kts
02-Nov-19 11:54 47.988286 -121.890467 295 8990ft 282kts
02-Nov-19 11:55 48.018715 -122.000108 280 5972ft 286kts
02-Nov-19 11:56 48.031134 -122.115436 280 3007ft 282kts
02-Nov-19 11:57 48.029502 -122.219349 240 2440ft 223kts
02-Nov-19 11:58 47.990805 -122.280004 199 1521ft 184kts
02-Nov-19 12:00 47.946484 -122.286207 179 1111ft 151kts
02-Nov-19 12:01 47.908935 -122.285569 179 575ft 49kts
02-Nov-19 12:02 47.906999 -122.283130 42 589ft 26kts
02-Nov-19 12:03 47.908257 -122.279239 25 593ft 0kts
02-Nov-19 12:04 47.908257 -122.279239 25 593ft 0kts
02-Nov-19 12:05 47.908257 -122.279239 25 593ft 0kts

Navigation Log

Ident Type
Flight plan parsing failed, navigation log unavailable